sensor_id;sensor_type;location;lat;lon;timestamp;P1;durP1;ratioP1;P2;durP2;ratioP2
17365;SDS011;8800;50.118;9.900;2022-12-07T00:02:19;21.95;;;9.75;;
17365;SDS011;8800;50.118;9.900;2022-12-07T00:04:47;24.67;;;9.18;;
17365;SDS011;8800;50.118;9.900;2022-12-07T00:07:14;17.52;;;8.05;;
17365;SDS011;8800;50.118;9.900;2022-12-07T00:09:41;17.13;;;7.28;;
17365;SDS011;8800;50.118;9.900;2022-12-07T00:12:07;16.65;;;7.72;;
17365;SDS011;8800;50.118;9.900;2022-12-07T00:14:34;29.67;;;10.18;;
17365;SDS011;8800;50.118;9.900;2022-12-07T00:17:00;23.10;;;9.10;;
17365;SDS011;8800;50.118;9.900;2022-12-07T00:19:26;21.88;;;8.48;;
17365;SDS011;8800;50.118;9.900;2022-12-07T00:21:54;19.38;;;7.97;;
17365;SDS011;8800;50.118;9.900;2022-12-07T00:24:20;20.77;;;8.07;;
17365;SDS011;8800;50.118;9.900;2022-12-07T00:26:47;20.92;;;8.32;;
17365;SDS011;8800;50.118;9.900;2022-12-07T00:29:15;22.38;;;8.82;;
17365;SDS011;8800;50.118;9.900;2022-12-07T00:31:41;27.98;;;9.23;;
17365;SDS011;8800;50.118;9.900;2022-12-07T00:34:11;23.15;;;8.65;;
17365;SDS011;8800;50.118;9.900;2022-12-07T00:36:38;20.52;;;8.95;;
17365;SDS011;8800;50.118;9.900;2022-12-07T00:39:06;17.92;;;7.75;;
17365;SDS011;8800;50.118;9.900;2022-12-07T00:41:32;17.73;;;7.47;;
17365;SDS011;8800;50.118;9.900;2022-12-07T00:43:58;14.80;;;7.07;;
17365;SDS011;8800;50.118;9.900;2022-12-07T00:46:25;18.42;;;7.35;;
17365;SDS011;8800;50.118;9.900;2022-12-07T00:48:52;15.80;;;6.93;;
17365;SDS011;8800;50.118;9.900;2022-12-07T00:51:19;17.67;;;7.63;;
17365;SDS011;8800;50.118;9.900;2022-12-07T00:53:46;18.38;;;7.32;;
17365;SDS011;8800;50.118;9.900;2022-12-07T00:56:14;14.93;;;6.53;;
17365;SDS011;8800;50.118;9.900;2022-12-07T00:58:41;15.57;;;7.18;;
17365;SDS011;8800;50.118;9.900;2022-12-07T01:01:08;15.05;;;6.20;;
17365;SDS011;8800;50.118;9.900;2022-12-07T01:03:34;17.05;;;7.75;;
17365;SDS011;8800;50.118;9.900;2022-12-07T01:06:01;19.90;;;8.20;;
17365;SDS011;8800;50.118;9.900;2022-12-07T01:08:28;16.13;;;7.70;;
17365;SDS011;8800;50.118;9.900;2022-12-07T01:10:57;20.92;;;8.48;;
17365;SDS011;8800;50.118;9.900;2022-12-07T01:13:25;19.52;;;8.13;;
17365;SDS011;8800;50.118;9.900;2022-12-07T01:15:56;17.27;;;7.20;;
17365;SDS011;8800;50.118;9.900;2022-12-07T01:18:22;19.25;;;8.10;;
17365;SDS011;8800;50.118;9.900;2022-12-07T01:20:56;16.90;;;7.93;;
17365;SDS011;8800;50.118;9.900;2022-12-07T01:23:22;20.95;;;8.45;;
17365;SDS011;8800;50.118;9.900;2022-12-07T01:25:53;18.80;;;7.85;;
17365;SDS011;8800;50.118;9.900;2022-12-07T01:28:19;18.08;;;7.40;;
17365;SDS011;8800;50.118;9.900;2022-12-07T01:30:55;13.98;;;6.63;;
17365;SDS011;8800;50.118;9.900;2022-12-07T01:33:21;18.33;;;8.02;;
17365;SDS011;8800;50.118;9.900;2022-12-07T01:35:48;17.33;;;8.00;;
17365;SDS011;8800;50.118;9.900;2022-12-07T01:38:14;16.48;;;6.93;;
17365;SDS011;8800;50.118;9.900;2022-12-07T01:40:40;18.63;;;7.57;;
17365;SDS011;8800;50.118;9.900;2022-12-07T01:43:09;18.90;;;7.85;;
17365;SDS011;8800;50.118;9.900;2022-12-07T01:45:40;15.13;;;6.43;;
17365;SDS011;8800;50.118;9.900;2022-12-07T01:48:08;19.50;;;7.30;;
17365;SDS011;8800;50.118;9.900;2022-12-07T01:50:36;14.65;;;6.95;;
17365;SDS011;8800;50.118;9.900;2022-12-07T01:53:04;16.55;;;7.13;;
17365;SDS011;8800;50.118;9.900;2022-12-07T01:55:32;16.98;;;7.25;;
17365;SDS011;8800;50.118;9.900;2022-12-07T01:57:58;15.95;;;7.20;;
17365;SDS011;8800;50.118;9.900;2022-12-07T02:00:25;17.98;;;7.50;;
17365;SDS011;8800;50.118;9.900;2022-12-07T02:02:53;19.10;;;7.78;;
17365;SDS011;8800;50.118;9.900;2022-12-07T02:05:23;16.30;;;7.25;;
17365;SDS011;8800;50.118;9.900;2022-12-07T02:07:50;15.35;;;6.28;;
17365;SDS011;8800;50.118;9.900;2022-12-07T02:10:18;18.77;;;7.43;;
17365;SDS011;8800;50.118;9.900;2022-12-07T02:12:45;17.52;;;7.28;;
17365;SDS011;8800;50.118;9.900;2022-12-07T02:15:13;19.40;;;8.23;;
17365;SDS011;8800;50.118;9.900;2022-12-07T02:17:40;16.70;;;7.00;;
17365;SDS011;8800;50.118;9.900;2022-12-07T02:20:25;18.55;;;8.55;;
17365;SDS011;8800;50.118;9.900;2022-12-07T02:23:07;18.23;;;7.47;;
17365;SDS011;8800;50.118;9.900;2022-12-07T02:25:45;17.75;;;7.50;;
17365;SDS011;8800;50.118;9.900;2022-12-07T02:28:17;18.27;;;8.07;;
17365;SDS011;8800;50.118;9.900;2022-12-07T02:30:46;16.50;;;7.57;;
17365;SDS011;8800;50.118;9.900;2022-12-07T02:33:15;16.33;;;7.78;;
17365;SDS011;8800;50.118;9.900;2022-12-07T02:35:43;22.70;;;8.02;;
17365;SDS011;8800;50.118;9.900;2022-12-07T02:38:11;15.85;;;6.75;;
17365;SDS011;8800;50.118;9.900;2022-12-07T02:40:41;17.00;;;6.70;;
17365;SDS011;8800;50.118;9.900;2022-12-07T02:43:11;16.15;;;6.82;;
17365;SDS011;8800;50.118;9.900;2022-12-07T02:45:39;18.77;;;7.28;;
17365;SDS011;8800;50.118;9.900;2022-12-07T02:48:08;20.15;;;7.75;;
17365;SDS011;8800;50.118;9.900;2022-12-07T02:50:35;18.35;;;7.57;;
17365;SDS011;8800;50.118;9.900;2022-12-07T02:53:02;20.55;;;8.02;;
17365;SDS011;8800;50.118;9.900;2022-12-07T02:55:30;17.05;;;8.25;;
17365;SDS011;8800;50.118;9.900;2022-12-07T02:58:11;20.50;;;8.02;;
17365;SDS011;8800;50.118;9.900;2022-12-07T03:00:44;17.45;;;7.47;;
17365;SDS011;8800;50.118;9.900;2022-12-07T03:03:13;19.40;;;8.13;;
17365;SDS011;8800;50.118;9.900;2022-12-07T03:05:43;19.17;;;8.48;;
17365;SDS011;8800;50.118;9.900;2022-12-07T03:08:13;20.98;;;8.10;;
17365;SDS011;8800;50.118;9.900;2022-12-07T03:10:42;20.23;;;7.85;;
17365;SDS011;8800;50.118;9.900;2022-12-07T03:13:14;16.52;;;7.28;;
17365;SDS011;8800;50.118;9.900;2022-12-07T03:15:43;16.67;;;7.55;;
17365;SDS011;8800;50.118;9.900;2022-12-07T03:18:15;20.45;;;9.05;;
17365;SDS011;8800;50.118;9.900;2022-12-07T03:20:42;20.50;;;8.80;;
17365;SDS011;8800;50.118;9.900;2022-12-07T03:23:10;19.77;;;7.90;;
17365;SDS011;8800;50.118;9.900;2022-12-07T03:25:41;16.45;;;7.07;;
17365;SDS011;8800;50.118;9.900;2022-12-07T03:28:08;20.55;;;8.63;;
17365;SDS011;8800;50.118;9.900;2022-12-07T03:30:38;23.20;;;8.93;;
17365;SDS011;8800;50.118;9.900;2022-12-07T03:33:10;20.08;;;7.53;;
17365;SDS011;8800;50.118;9.900;2022-12-07T03:35:39;17.98;;;7.20;;
17365;SDS011;8800;50.118;9.900;2022-12-07T03:38:08;19.02;;;8.23;;
17365;SDS011;8800;50.118;9.900;2022-12-07T03:40:37;15.82;;;7.63;;
17365;SDS011;8800;50.118;9.900;2022-12-07T03:43:05;19.63;;;7.80;;
17365;SDS011;8800;50.118;9.900;2022-12-07T03:45:33;16.75;;;7.10;;
17365;SDS011;8800;50.118;9.900;2022-12-07T03:48:05;16.85;;;7.55;;
17365;SDS011;8800;50.118;9.900;2022-12-07T03:50:35;15.43;;;7.13;;
17365;SDS011;8800;50.118;9.900;2022-12-07T03:53:08;15.77;;;6.93;;
17365;SDS011;8800;50.118;9.900;2022-12-07T03:55:37;15.60;;;7.55;;
17365;SDS011;8800;50.118;9.900;2022-12-07T03:58:05;17.08;;;6.82;;
17365;SDS011;8800;50.118;9.900;2022-12-07T04:00:33;16.58;;;7.45;;
17365;SDS011;8800;50.118;9.900;2022-12-07T04:02:59;17.50;;;7.75;;
17365;SDS011;8800;50.118;9.900;2022-12-07T04:05:26;18.20;;;7.40;;
17365;SDS011;8800;50.118;9.900;2022-12-07T04:07:52;17.58;;;7.32;;
17365;SDS011;8800;50.118;9.900;2022-12-07T04:10:20;16.50;;;6.93;;
17365;SDS011;8800;50.118;9.900;2022-12-07T04:12:47;15.88;;;7.20;;
17365;SDS011;8800;50.118;9.900;2022-12-07T04:15:13;17.27;;;7.15;;
17365;SDS011;8800;50.118;9.900;2022-12-07T04:17:39;18.90;;;7.85;;
17365;SDS011;8800;50.118;9.900;2022-12-07T04:20:06;17.60;;;7.78;;
17365;SDS011;8800;50.118;9.900;2022-12-07T04:22:33;18.42;;;7.63;;
17365;SDS011;8800;50.118;9.900;2022-12-07T04:24:59;19.48;;;7.90;;
17365;SDS011;8800;50.118;9.900;2022-12-07T04:27:28;19.92;;;9.10;;
17365;SDS011;8800;50.118;9.900;2022-12-07T04:29:54;22.33;;;8.18;;
17365;SDS011;8800;50.118;9.900;2022-12-07T04:32:21;19.40;;;8.00;;
17365;SDS011;8800;50.118;9.900;2022-12-07T04:34:48;18.58;;;8.25;;
17365;SDS011;8800;50.118;9.900;2022-12-07T04:37:14;17.50;;;7.20;;
17365;SDS011;8800;50.118;9.900;2022-12-07T04:39:42;16.77;;;7.45;;
17365;SDS011;8800;50.118;9.900;2022-12-07T04:42:10;18.52;;;8.07;;
17365;SDS011;8800;50.118;9.900;2022-12-07T04:44:39;17.42;;;7.82;;
17365;SDS011;8800;50.118;9.900;2022-12-07T04:47:05;19.35;;;8.55;;
17365;SDS011;8800;50.118;9.900;2022-12-07T04:49:32;17.55;;;8.80;;
17365;SDS011;8800;50.118;9.900;2022-12-07T04:51:59;16.58;;;7.47;;
17365;SDS011;8800;50.118;9.900;2022-12-07T04:54:26;19.65;;;7.85;;
17365;SDS011;8800;50.118;9.900;2022-12-07T04:56:52;16.05;;;7.38;;
17365;SDS011;8800;50.118;9.900;2022-12-07T04:59:19;21.10;;;7.80;;
17365;SDS011;8800;50.118;9.900;2022-12-07T05:01:47;19.80;;;8.38;;
17365;SDS011;8800;50.118;9.900;2022-12-07T05:04:13;19.00;;;7.78;;
17365;SDS011;8800;50.118;9.900;2022-12-07T05:06:41;18.48;;;7.40;;
17365;SDS011;8800;50.118;9.900;2022-12-07T05:09:07;15.48;;;6.85;;
17365;SDS011;8800;50.118;9.900;2022-12-07T05:11:33;18.13;;;7.50;;
17365;SDS011;8800;50.118;9.900;2022-12-07T05:14:07;17.08;;;7.55;;
17365;SDS011;8800;50.118;9.900;2022-12-07T05:16:34;22.35;;;9.50;;
17365;SDS011;8800;50.118;9.900;2022-12-07T05:19:02;17.33;;;7.10;;
17365;SDS011;8800;50.118;9.900;2022-12-07T05:21:28;19.17;;;7.65;;
17365;SDS011;8800;50.118;9.900;2022-12-07T05:23:54;18.38;;;7.53;;
17365;SDS011;8800;50.118;9.900;2022-12-07T05:26:21;18.67;;;6.90;;
17365;SDS011;8800;50.118;9.900;2022-12-07T05:28:49;15.93;;;6.97;;
17365;SDS011;8800;50.118;9.900;2022-12-07T05:31:16;12.30;;;5.88;;
17365;SDS011;8800;50.118;9.900;2022-12-07T05:33:42;16.77;;;7.65;;
17365;SDS011;8800;50.118;9.900;2022-12-07T05:36:10;17.00;;;7.32;;
17365;SDS011;8800;50.118;9.900;2022-12-07T05:38:36;15.90;;;7.30;;
17365;SDS011;8800;50.118;9.900;2022-12-07T05:41:03;16.70;;;7.25;;
17365;SDS011;8800;50.118;9.900;2022-12-07T05:43:30;16.48;;;7.88;;
17365;SDS011;8800;50.118;9.900;2022-12-07T05:45:56;15.73;;;6.22;;
17365;SDS011;8800;50.118;9.900;2022-12-07T05:48:23;17.20;;;6.88;;
17365;SDS011;8800;50.118;9.900;2022-12-07T05:50:50;14.63;;;6.57;;
17365;SDS011;8800;50.118;9.900;2022-12-07T05:53:18;16.90;;;6.25;;
17365;SDS011;8800;50.118;9.900;2022-12-07T05:55:45;14.02;;;6.15;;
17365;SDS011;8800;50.118;9.900;2022-12-07T05:58:11;13.35;;;6.03;;
17365;SDS011;8800;50.118;9.900;2022-12-07T06:00:56;16.00;;;6.07;;
17365;SDS011;8800;50.118;9.900;2022-12-07T06:03:22;13.25;;;6.07;;
17365;SDS011;8800;50.118;9.900;2022-12-07T06:05:49;14.70;;;5.97;;
17365;SDS011;8800;50.118;9.900;2022-12-07T06:08:16;14.25;;;6.53;;
17365;SDS011;8800;50.118;9.900;2022-12-07T06:10:44;14.35;;;6.32;;
17365;SDS011;8800;50.118;9.900;2022-12-07T06:13:10;13.27;;;6.07;;
17365;SDS011;8800;50.118;9.900;2022-12-07T06:15:36;14.05;;;6.65;;
17365;SDS011;8800;50.118;9.900;2022-12-07T06:18:03;15.57;;;6.55;;
17365;SDS011;8800;50.118;9.900;2022-12-07T06:20:29;15.15;;;7.40;;
17365;SDS011;8800;50.118;9.900;2022-12-07T06:22:56;16.05;;;6.80;;
17365;SDS011;8800;50.118;9.900;2022-12-07T06:25:23;16.13;;;6.53;;
17365;SDS011;8800;50.118;9.900;2022-12-07T06:27:51;12.45;;;6.30;;
17365;SDS011;8800;50.118;9.900;2022-12-07T06:30:18;15.60;;;6.95;;
17365;SDS011;8800;50.118;9.900;2022-12-07T06:32:44;14.40;;;6.80;;
17365;SDS011;8800;50.118;9.900;2022-12-07T06:35:11;19.88;;;8.45;;
17365;SDS011;8800;50.118;9.900;2022-12-07T06:37:37;19.45;;;8.38;;
17365;SDS011;8800;50.118;9.900;2022-12-07T06:40:05;19.08;;;8.73;;
17365;SDS011;8800;50.118;9.900;2022-12-07T06:42:34;24.80;;;9.60;;
17365;SDS011;8800;50.118;9.900;2022-12-07T06:45:02;18.85;;;7.60;;
17365;SDS011;8800;50.118;9.900;2022-12-07T06:47:29;17.70;;;8.02;;
17365;SDS011;8800;50.118;9.900;2022-12-07T06:49:55;19.70;;;7.70;;
17365;SDS011;8800;50.118;9.900;2022-12-07T06:52:22;21.65;;;8.95;;
17365;SDS011;8800;50.118;9.900;2022-12-07T06:54:49;16.55;;;7.00;;
17365;SDS011;8800;50.118;9.900;2022-12-07T06:57:15;18.02;;;7.75;;
17365;SDS011;8800;50.118;9.900;2022-12-07T06:59:42;17.77;;;8.02;;
17365;SDS011;8800;50.118;9.900;2022-12-07T07:02:10;19.83;;;8.63;;
17365;SDS011;8800;50.118;9.900;2022-12-07T07:04:37;21.73;;;8.38;;
17365;SDS011;8800;50.118;9.900;2022-12-07T07:07:03;18.50;;;7.57;;
17365;SDS011;8800;50.118;9.900;2022-12-07T07:09:30;16.42;;;7.80;;
17365;SDS011;8800;50.118;9.900;2022-12-07T07:11:57;22.95;;;8.70;;
17365;SDS011;8800;50.118;9.900;2022-12-07T07:14:23;18.35;;;8.48;;
17365;SDS011;8800;50.118;9.900;2022-12-07T07:16:50;18.95;;;8.30;;
17365;SDS011;8800;50.118;9.900;2022-12-07T07:19:18;23.95;;;9.68;;
17365;SDS011;8800;50.118;9.900;2022-12-07T07:21:45;24.90;;;9.85;;
17365;SDS011;8800;50.118;9.900;2022-12-07T07:24:12;25.75;;;11.32;;
17365;SDS011;8800;50.118;9.900;2022-12-07T07:26:38;29.05;;;10.98;;
17365;SDS011;8800;50.118;9.900;2022-12-07T07:29:05;22.48;;;9.80;;
17365;SDS011;8800;50.118;9.900;2022-12-07T07:31:31;23.38;;;10.05;;
17365;SDS011;8800;50.118;9.900;2022-12-07T07:34:00;24.00;;;10.90;;
17365;SDS011;8800;50.118;9.900;2022-12-07T07:36:28;21.42;;;9.40;;
17365;SDS011;8800;50.118;9.900;2022-12-07T07:38:55;22.00;;;9.32;;
17365;SDS011;8800;50.118;9.900;2022-12-07T07:41:22;19.90;;;8.30;;
17365;SDS011;8800;50.118;9.900;2022-12-07T07:43:48;20.52;;;8.93;;
17365;SDS011;8800;50.118;9.900;2022-12-07T07:46:15;21.50;;;10.02;;
17365;SDS011;8800;50.118;9.900;2022-12-07T07:48:42;18.92;;;8.00;;
17365;SDS011;8800;50.118;9.900;2022-12-07T07:51:08;16.45;;;7.68;;
17365;SDS011;8800;50.118;9.900;2022-12-07T07:53:37;21.33;;;9.00;;
17365;SDS011;8800;50.118;9.900;2022-12-07T07:56:03;20.08;;;8.20;;
17365;SDS011;8800;50.118;9.900;2022-12-07T07:58:30;23.20;;;8.30;;
17365;SDS011;8800;50.118;9.900;2022-12-07T08:00:57;19.73;;;8.57;;
17365;SDS011;8800;50.118;9.900;2022-12-07T08:03:23;25.17;;;11.30;;
17365;SDS011;8800;50.118;9.900;2022-12-07T08:05:50;21.60;;;9.70;;
17365;SDS011;8800;50.118;9.900;2022-12-07T08:08:17;19.92;;;9.18;;
17365;SDS011;8800;50.118;9.900;2022-12-07T08:10:45;18.52;;;8.57;;
17365;SDS011;8800;50.118;9.900;2022-12-07T08:13:11;19.38;;;8.30;;
17365;SDS011;8800;50.118;9.900;2022-12-07T08:15:39;23.90;;;10.10;;
17365;SDS011;8800;50.118;9.900;2022-12-07T08:18:06;18.55;;;8.55;;
17365;SDS011;8800;50.118;9.900;2022-12-07T08:20:33;22.65;;;9.98;;
17365;SDS011;8800;50.118;9.900;2022-12-07T08:23:00;21.23;;;9.32;;
17365;SDS011;8800;50.118;9.900;2022-12-07T08:25:27;20.85;;;9.85;;
17365;SDS011;8800;50.118;9.900;2022-12-07T08:27:55;21.65;;;9.95;;
17365;SDS011;8800;50.118;9.900;2022-12-07T08:30:22;22.40;;;9.98;;
17365;SDS011;8800;50.118;9.900;2022-12-07T08:32:48;19.80;;;9.10;;
17365;SDS011;8800;50.118;9.900;2022-12-07T08:35:16;19.63;;;8.80;;
17365;SDS011;8800;50.118;9.900;2022-12-07T08:37:42;16.77;;;7.85;;
17365;SDS011;8800;50.118;9.900;2022-12-07T08:40:10;20.02;;;8.73;;
17365;SDS011;8800;50.118;9.900;2022-12-07T08:42:40;18.77;;;8.75;;
17365;SDS011;8800;50.118;9.900;2022-12-07T08:45:09;21.13;;;8.63;;
17365;SDS011;8800;50.118;9.900;2022-12-07T08:47:37;18.83;;;8.90;;
17365;SDS011;8800;50.118;9.900;2022-12-07T08:50:05;21.30;;;9.02;;
17365;SDS011;8800;50.118;9.900;2022-12-07T08:52:33;17.83;;;8.48;;
17365;SDS011;8800;50.118;9.900;2022-12-07T08:55:00;18.30;;;8.30;;
17365;SDS011;8800;50.118;9.900;2022-12-07T08:57:27;21.63;;;8.73;;
17365;SDS011;8800;50.118;9.900;2022-12-07T08:59:54;22.10;;;9.30;;
17365;SDS011;8800;50.118;9.900;2022-12-07T09:02:22;21.73;;;8.80;;
17365;SDS011;8800;50.118;9.900;2022-12-07T09:04:49;22.75;;;9.68;;
17365;SDS011;8800;50.118;9.900;2022-12-07T09:07:16;22.40;;;9.05;;
17365;SDS011;8800;50.118;9.900;2022-12-07T09:09:42;18.52;;;7.95;;
17365;SDS011;8800;50.118;9.900;2022-12-07T09:12:09;15.82;;;7.45;;
17365;SDS011;8800;50.118;9.900;2022-12-07T09:14:36;19.90;;;8.55;;
17365;SDS011;8800;50.118;9.900;2022-12-07T09:17:06;15.45;;;7.30;;
17365;SDS011;8800;50.118;9.900;2022-12-07T09:19:35;15.90;;;7.47;;
17365;SDS011;8800;50.118;9.900;2022-12-07T09:22:01;15.27;;;7.15;;
17365;SDS011;8800;50.118;9.900;2022-12-07T09:24:28;20.08;;;7.65;;
17365;SDS011;8800;50.118;9.900;2022-12-07T09:26:54;15.40;;;7.53;;
17365;SDS011;8800;50.118;9.900;2022-12-07T09:29:21;17.40;;;7.68;;
17365;SDS011;8800;50.118;9.900;2022-12-07T09:31:48;19.45;;;8.70;;
17365;SDS011;8800;50.118;9.900;2022-12-07T09:34:15;17.70;;;6.85;;
17365;SDS011;8800;50.118;9.900;2022-12-07T09:36:43;13.38;;;6.97;;
17365;SDS011;8800;50.118;9.900;2022-12-07T09:39:10;13.20;;;6.57;;
17365;SDS011;8800;50.118;9.900;2022-12-07T09:41:37;13.40;;;6.45;;
17365;SDS011;8800;50.118;9.900;2022-12-07T09:44:05;17.20;;;7.03;;
17365;SDS011;8800;50.118;9.900;2022-12-07T09:46:34;16.60;;;7.47;;
17365;SDS011;8800;50.118;9.900;2022-12-07T09:49:01;13.88;;;7.10;;
17365;SDS011;8800;50.118;9.900;2022-12-07T09:51:27;12.18;;;6.22;;
17365;SDS011;8800;50.118;9.900;2022-12-07T09:53:56;14.10;;;6.32;;
17365;SDS011;8800;50.118;9.900;2022-12-07T09:56:24;17.63;;;8.02;;
17365;SDS011;8800;50.118;9.900;2022-12-07T09:58:51;19.45;;;8.25;;
17365;SDS011;8800;50.118;9.900;2022-12-07T10:01:21;27.80;;;11.70;;
17365;SDS011;8800;50.118;9.900;2022-12-07T10:03:48;22.27;;;8.70;;
17365;SDS011;8800;50.118;9.900;2022-12-07T10:06:16;32.40;;;12.80;;
17365;SDS011;8800;50.118;9.900;2022-12-07T10:08:42;26.50;;;11.10;;
17365;SDS011;8800;50.118;9.900;2022-12-07T10:11:11;27.58;;;10.68;;
17365;SDS011;8800;50.118;9.900;2022-12-07T10:13:40;36.42;;;13.45;;
17365;SDS011;8800;50.118;9.900;2022-12-07T10:16:24;24.17;;;9.57;;
17365;SDS011;8800;50.118;9.900;2022-12-07T10:18:53;19.70;;;9.00;;
17365;SDS011;8800;50.118;9.900;2022-12-07T10:21:20;13.25;;;6.93;;
17365;SDS011;8800;50.118;9.900;2022-12-07T10:24:01;26.30;;;10.90;;
17365;SDS011;8800;50.118;9.900;2022-12-07T10:26:31;17.73;;;8.13;;
17365;SDS011;8800;50.118;9.900;2022-12-07T10:29:02;16.60;;;6.40;;
17365;SDS011;8800;50.118;9.900;2022-12-07T10:31:29;21.38;;;8.38;;
17365;SDS011;8800;50.118;9.900;2022-12-07T10:33:57;12.70;;;6.50;;
17365;SDS011;8800;50.118;9.900;2022-12-07T10:36:25;19.02;;;8.00;;
17365;SDS011;8800;50.118;9.900;2022-12-07T10:38:53;16.10;;;7.10;;
17365;SDS011;8800;50.118;9.900;2022-12-07T10:41:20;16.45;;;8.05;;
17365;SDS011;8800;50.118;9.900;2022-12-07T10:43:49;12.25;;;5.78;;
17365;SDS011;8800;50.118;9.900;2022-12-07T10:46:33;18.83;;;8.75;;
17365;SDS011;8800;50.118;9.900;2022-12-07T10:49:07;16.30;;;8.88;;
17365;SDS011;8800;50.118;9.900;2022-12-07T10:51:37;14.98;;;7.63;;
17365;SDS011;8800;50.118;9.900;2022-12-07T10:54:09;16.33;;;6.75;;
17365;SDS011;8800;50.118;9.900;2022-12-07T10:56:46;16.65;;;8.38;;
17365;SDS011;8800;50.118;9.900;2022-12-07T11:02:06;16.83;;;7.47;;
17365;SDS011;8800;50.118;9.900;2022-12-07T11:04:39;19.70;;;9.20;;
17365;SDS011;8800;50.118;9.900;2022-12-07T11:07:10;25.35;;;11.52;;
17365;SDS011;8800;50.118;9.900;2022-12-07T11:09:45;35.95;;;14.32;;
17365;SDS011;8800;50.118;9.900;2022-12-07T11:12:16;26.55;;;11.65;;
17365;SDS011;8800;50.118;9.900;2022-12-07T11:14:48;25.75;;;11.23;;
17365;SDS011;8800;50.118;9.900;2022-12-07T11:17:22;17.58;;;8.88;;
17365;SDS011;8800;50.118;9.900;2022-12-07T11:20:00;22.13;;;8.95;;
17365;SDS011;8800;50.118;9.900;2022-12-07T11:22:29;15.60;;;7.40;;
17365;SDS011;8800;50.118;9.900;2022-12-07T11:25:01;13.18;;;6.13;;
17365;SDS011;8800;50.118;9.900;2022-12-07T11:27:30;22.15;;;10.23;;
17365;SDS011;8800;50.118;9.900;2022-12-07T11:30:02;11.50;;;5.75;;
17365;SDS011;8800;50.118;9.900;2022-12-07T11:32:40;23.27;;;10.43;;
17365;SDS011;8800;50.118;9.900;2022-12-07T11:35:10;19.55;;;8.40;;
17365;SDS011;8800;50.118;9.900;2022-12-07T11:37:37;29.42;;;10.77;;
17365;SDS011;8800;50.118;9.900;2022-12-07T11:40:11;15.88;;;7.47;;
17365;SDS011;8800;50.118;9.900;2022-12-07T11:42:41;55.47;;;16.88;;
17365;SDS011;8800;50.118;9.900;2022-12-07T11:45:13;18.08;;;7.15;;
17365;SDS011;8800;50.118;9.900;2022-12-07T11:47:43;27.33;;;10.07;;
17365;SDS011;8800;50.118;9.900;2022-12-07T11:50:14;12.48;;;5.60;;
17365;SDS011;8800;50.118;9.900;2022-12-07T11:52:44;16.30;;;6.93;;
17365;SDS011;8800;50.118;9.900;2022-12-07T11:55:18;17.85;;;6.70;;
17365;SDS011;8800;50.118;9.900;2022-12-07T11:57:46;27.88;;;11.70;;
17365;SDS011;8800;50.118;9.900;2022-12-07T12:00:15;15.10;;;6.93;;
17365;SDS011;8800;50.118;9.900;2022-12-07T12:02:43;10.63;;;5.60;;
17365;SDS011;8800;50.118;9.900;2022-12-07T12:05:13;9.93;;;4.85;;
17365;SDS011;8800;50.118;9.900;2022-12-07T12:07:40;19.25;;;8.50;;
17365;SDS011;8800;50.118;9.900;2022-12-07T12:10:13;9.82;;;4.43;;
17365;SDS011;8800;50.118;9.900;2022-12-07T12:12:48;9.93;;;4.53;;
17365;SDS011;8800;50.118;9.900;2022-12-07T12:15:22;11.95;;;5.63;;
17365;SDS011;8800;50.118;9.900;2022-12-07T12:17:59;11.00;;;5.43;;
17365;SDS011;8800;50.118;9.900;2022-12-07T12:20:27;16.90;;;9.13;;
17365;SDS011;8800;50.118;9.900;2022-12-07T12:22:55;9.65;;;4.13;;
17365;SDS011;8800;50.118;9.900;2022-12-07T12:25:24;14.27;;;7.15;;
17365;SDS011;8800;50.118;9.900;2022-12-07T12:27:52;11.63;;;4.15;;
17365;SDS011;8800;50.118;9.900;2022-12-07T12:30:24;16.80;;;7.38;;
17365;SDS011;8800;50.118;9.900;2022-12-07T12:32:51;12.88;;;5.47;;
17365;SDS011;8800;50.118;9.900;2022-12-07T12:35:27;14.55;;;4.82;;
17365;SDS011;8800;50.118;9.900;2022-12-07T12:37:55;10.63;;;4.05;;
17365;SDS011;8800;50.118;9.900;2022-12-07T12:40:43;10.63;;;4.75;;
17365;SDS011;8800;50.118;9.900;2022-12-07T12:48:36;15.05;;;5.70;;
17365;SDS011;8800;50.118;9.900;2022-12-07T12:53:44;24.83;;;9.68;;
17365;SDS011;8800;50.118;9.900;2022-12-07T12:56:21;43.40;;;14.52;;
17365;SDS011;8800;50.118;9.900;2022-12-07T12:58:49;29.83;;;11.20;;
17365;SDS011;8800;50.118;9.900;2022-12-07T13:01:39;12.30;;;4.97;;
17365;SDS011;8800;50.118;9.900;2022-12-07T13:04:24;11.25;;;5.57;;
17365;SDS011;8800;50.118;9.900;2022-12-07T13:06:51;12.23;;;5.03;;
17365;SDS011;8800;50.118;9.900;2022-12-07T13:09:19;13.02;;;6.18;;
17365;SDS011;8800;50.118;9.900;2022-12-07T13:11:47;14.93;;;7.93;;
17365;SDS011;8800;50.118;9.900;2022-12-07T13:16:59;7.10;;;3.63;;
17365;SDS011;8800;50.118;9.900;2022-12-07T13:22:35;10.02;;;5.82;;
17365;SDS011;8800;50.118;9.900;2022-12-07T13:25:05;9.02;;;3.60;;
17365;SDS011;8800;50.118;9.900;2022-12-07T13:27:35;5.65;;;2.83;;
17365;SDS011;8800;50.118;9.900;2022-12-07T13:30:06;5.32;;;3.08;;
17365;SDS011;8800;50.118;9.900;2022-12-07T13:32:34;10.77;;;4.88;;
17365;SDS011;8800;50.118;9.900;2022-12-07T13:35:00;7.47;;;4.25;;
17365;SDS011;8800;50.118;9.900;2022-12-07T13:37:47;7.15;;;3.45;;
17365;SDS011;8800;50.118;9.900;2022-12-07T13:40:17;6.15;;;3.22;;
17365;SDS011;8800;50.118;9.900;2022-12-07T13:42:46;8.57;;;3.60;;
17365;SDS011;8800;50.118;9.900;2022-12-07T13:45:20;12.10;;;4.22;;
17365;SDS011;8800;50.118;9.900;2022-12-07T13:48:08;9.43;;;3.70;;
17365;SDS011;8800;50.118;9.900;2022-12-07T13:50:39;11.75;;;4.72;;
17365;SDS011;8800;50.118;9.900;2022-12-07T13:53:07;7.40;;;3.08;;
17365;SDS011;8800;50.118;9.900;2022-12-07T13:55:37;7.05;;;3.40;;
17365;SDS011;8800;50.118;9.900;2022-12-07T13:58:11;5.50;;;2.40;;
17365;SDS011;8800;50.118;9.900;2022-12-07T14:00:37;4.35;;;2.53;;
17365;SDS011;8800;50.118;9.900;2022-12-07T14:03:22;3.58;;;2.08;;
17365;SDS011;8800;50.118;9.900;2022-12-07T14:06:02;5.57;;;3.10;;
17365;SDS011;8800;50.118;9.900;2022-12-07T14:08:29;6.53;;;3.58;;
17365;SDS011;8800;50.118;9.900;2022-12-07T14:10:56;8.80;;;4.03;;
17365;SDS011;8800;50.118;9.900;2022-12-07T14:13:27;7.97;;;4.03;;
17365;SDS011;8800;50.118;9.900;2022-12-07T14:15:54;8.27;;;4.22;;
17365;SDS011;8800;50.118;9.900;2022-12-07T14:18:25;9.35;;;4.70;;
17365;SDS011;8800;50.118;9.900;2022-12-07T14:21:01;10.70;;;5.22;;
17365;SDS011;8800;50.118;9.900;2022-12-07T14:23:28;14.52;;;6.57;;
17365;SDS011;8800;50.118;9.900;2022-12-07T14:26:03;17.80;;;7.32;;
17365;SDS011;8800;50.118;9.900;2022-12-07T14:28:32;23.20;;;8.82;;
17365;SDS011;8800;50.118;9.900;2022-12-07T14:30:59;41.22;;;13.50;;
17365;SDS011;8800;50.118;9.900;2022-12-07T14:33:25;39.35;;;13.20;;
17365;SDS011;8800;50.118;9.900;2022-12-07T14:35:52;44.50;;;14.27;;
17365;SDS011;8800;50.118;9.900;2022-12-07T14:38:20;38.03;;;13.27;;
17365;SDS011;8800;50.118;9.900;2022-12-07T14:40:46;21.00;;;7.93;;
17365;SDS011;8800;50.118;9.900;2022-12-07T14:43:14;14.13;;;6.50;;
17365;SDS011;8800;50.118;9.900;2022-12-07T14:45:43;20.42;;;8.43;;
17365;SDS011;8800;50.118;9.900;2022-12-07T14:48:10;38.47;;;12.70;;
17365;SDS011;8800;50.118;9.900;2022-12-07T14:50:37;16.00;;;7.22;;
17365;SDS011;8800;50.118;9.900;2022-12-07T14:53:06;26.73;;;8.25;;
17365;SDS011;8800;50.118;9.900;2022-12-07T14:55:35;27.70;;;9.27;;
17365;SDS011;8800;50.118;9.900;2022-12-07T14:58:02;37.67;;;14.30;;
17365;SDS011;8800;50.118;9.900;2022-12-07T15:00:28;42.47;;;17.60;;
17365;SDS011;8800;50.118;9.900;2022-12-07T15:02:56;42.97;;;16.00;;
17365;SDS011;8800;50.118;9.900;2022-12-07T15:05:23;25.83;;;11.75;;
17365;SDS011;8800;50.118;9.900;2022-12-07T15:07:49;15.90;;;8.27;;
17365;SDS011;8800;50.118;9.900;2022-12-07T15:10:16;17.92;;;9.05;;
17365;SDS011;8800;50.118;9.900;2022-12-07T15:12:44;18.00;;;9.35;;
17365;SDS011;8800;50.118;9.900;2022-12-07T15:15:10;33.10;;;14.18;;